createdAt,value
2023-05-22T00:01:46.812Z,99.90
2023-05-22T00:04:13.701Z,99.90
2023-05-22T00:06:43.902Z,99.90
2023-05-22T00:09:11.088Z,99.90
2023-05-22T00:11:38.037Z,99.90
2023-05-22T00:14:05.572Z,99.90
2023-05-22T00:16:32.419Z,99.90
2023-05-22T00:18:59.237Z,99.90
2023-05-22T00:21:27.861Z,99.90
2023-05-22T00:23:54.603Z,99.90
2023-05-22T00:26:23.351Z,99.90
2023-05-22T00:28:50.171Z,99.90
2023-05-22T00:31:17.000Z,99.90
2023-05-22T00:33:43.843Z,99.90
2023-05-22T00:36:10.838Z,99.90
2023-05-22T00:38:38.171Z,99.90
2023-05-22T00:41:06.018Z,99.90
2023-05-22T00:43:36.133Z,99.90
2023-05-22T00:46:03.618Z,99.90
2023-05-22T00:48:30.945Z,99.90
2023-05-22T00:50:58.040Z,99.90
2023-05-22T00:53:25.045Z,99.90
2023-05-22T00:55:52.323Z,99.90
2023-05-22T00:58:19.193Z,99.90
2023-05-22T01:00:46.774Z,99.90
2023-05-22T01:03:13.985Z,99.90
2023-05-22T01:05:40.870Z,99.90
2023-05-22T01:08:07.959Z,99.90
2023-05-22T01:10:35.143Z,99.90
2023-05-22T01:13:07.284Z,99.90
2023-05-22T01:15:41.071Z,99.90
2023-05-22T01:18:11.183Z,99.90
2023-05-22T01:20:39.332Z,99.90
2023-05-22T01:23:15.191Z,99.90
2023-05-22T01:25:47.629Z,99.90
2023-05-22T01:28:37.904Z,99.90
2023-05-22T01:31:06.588Z,99.90
2023-05-22T01:33:33.962Z,99.90
2023-05-22T01:36:00.762Z,99.90
2023-05-22T01:38:27.710Z,99.90
2023-05-22T01:40:54.470Z,99.90
2023-05-22T01:43:21.408Z,99.90
2023-05-22T01:45:48.155Z,99.90
2023-05-22T01:48:14.935Z,99.90
2023-05-22T01:50:41.844Z,99.90
2023-05-22T01:53:12.710Z,99.90
2023-05-22T01:55:50.494Z,99.90
2023-05-22T01:58:31.896Z,99.90
2023-05-22T02:01:00.947Z,99.90
2023-05-22T02:03:30.131Z,99.90
2023-05-22T02:05:56.977Z,99.90
2023-05-22T02:08:25.059Z,99.90
2023-05-22T02:10:52.407Z,99.90
2023-05-22T02:13:19.217Z,99.90
2023-05-22T02:15:46.533Z,99.90
2023-05-22T02:18:13.386Z,99.90
2023-05-22T02:20:40.604Z,99.90
2023-05-22T02:23:07.543Z,99.90
2023-05-22T02:25:34.323Z,99.90
2023-05-22T02:28:01.043Z,99.90
2023-05-22T02:30:27.928Z,99.90
2023-05-22T02:32:54.722Z,99.90
2023-05-22T02:35:21.496Z,99.90
2023-05-22T02:37:48.233Z,99.90
2023-05-22T02:40:15.718Z,99.90
2023-05-22T02:42:42.539Z,99.90
2023-05-22T02:45:09.768Z,99.90
2023-05-22T02:47:36.515Z,99.90
2023-05-22T02:50:03.764Z,99.90
2023-05-22T02:52:30.963Z,99.90
2023-05-22T02:54:57.667Z,99.90
2023-05-22T02:57:24.401Z,99.90
2023-05-22T02:59:52.711Z,99.90
2023-05-22T03:02:19.882Z,99.90
2023-05-22T03:04:46.902Z,99.90
2023-05-22T03:07:13.692Z,99.90
2023-05-22T03:09:40.492Z,99.90
2023-05-22T03:12:07.452Z,99.90
2023-05-22T03:14:34.306Z,99.90
2023-05-22T03:17:01.048Z,99.90
2023-05-22T03:19:27.790Z,99.90
2023-05-22T03:21:54.508Z,99.90
2023-05-22T03:24:21.732Z,99.90
2023-05-22T03:26:48.545Z,99.90
2023-05-22T03:29:15.588Z,99.90
2023-05-22T03:31:42.363Z,99.90
2023-05-22T03:34:09.235Z,99.90
2023-05-22T03:36:36.090Z,99.90
2023-05-22T03:39:03.332Z,99.90
2023-05-22T03:41:30.142Z,99.90
2023-05-22T03:43:57.526Z,99.90
2023-05-22T03:46:24.336Z,99.90
2023-05-22T03:48:51.159Z,99.90
2023-05-22T03:51:20.135Z,99.90
2023-05-22T03:53:47.109Z,99.90
2023-05-22T03:56:13.886Z,99.90
2023-05-22T03:58:40.924Z,99.90
2023-05-22T04:01:09.895Z,99.90
2023-05-22T04:03:39.650Z,99.90
2023-05-22T04:06:07.536Z,99.90
2023-05-22T04:08:34.767Z,99.90
2023-05-22T04:11:01.537Z,99.90
2023-05-22T04:13:28.696Z,99.90
2023-05-22T04:15:56.908Z,99.90
2023-05-22T04:18:23.668Z,99.90
2023-05-22T04:20:51.862Z,99.90
2023-05-22T04:23:18.684Z,99.90
2023-05-22T04:25:48.164Z,99.90
2023-05-22T04:28:18.293Z,99.90
2023-05-22T04:30:45.752Z,99.90
2023-05-22T04:33:12.950Z,99.90
2023-05-22T04:35:40.855Z,99.90
2023-05-22T04:38:07.708Z,99.90
2023-05-22T04:40:38.463Z,99.90
2023-05-22T04:43:05.597Z,99.90
2023-05-22T04:45:33.037Z,99.90
2023-05-22T04:48:02.643Z,99.90
2023-05-22T04:50:33.011Z,99.90
2023-05-22T04:52:59.923Z,99.90
2023-05-22T04:55:26.565Z,99.90
2023-05-22T04:57:54.156Z,99.90
2023-05-22T05:00:26.465Z,99.90
2023-05-22T05:02:53.835Z,99.90
2023-05-22T05:05:20.705Z,99.90
2023-05-22T05:07:49.822Z,99.90
2023-05-22T05:10:17.156Z,99.90
2023-05-22T05:12:44.043Z,99.90
2023-05-22T05:15:11.460Z,99.90
2023-05-22T05:17:38.690Z,99.90
2023-05-22T05:20:07.788Z,99.90
2023-05-22T05:22:34.532Z,99.90
2023-05-22T05:25:02.073Z,99.90
2023-05-22T05:27:28.828Z,99.90
2023-05-22T05:29:56.238Z,99.90
2023-05-22T05:32:23.163Z,99.90
2023-05-22T05:34:50.398Z,99.90
2023-05-22T05:37:17.575Z,99.90
2023-05-22T05:39:44.278Z,99.90
2023-05-22T05:42:11.578Z,99.90
2023-05-22T05:44:38.859Z,99.90
2023-05-22T05:47:06.539Z,99.90
2023-05-22T05:49:35.657Z,99.90
2023-05-22T05:52:02.930Z,99.90
2023-05-22T05:54:29.889Z,99.90
2023-05-22T05:56:56.730Z,99.90
2023-05-22T05:59:24.505Z,99.90
2023-05-22T06:01:51.654Z,99.90
2023-05-22T06:04:18.761Z,99.90
2023-05-22T06:06:46.108Z,99.90
2023-05-22T06:09:13.328Z,99.90
2023-05-22T06:11:40.730Z,99.90
2023-05-22T06:14:08.955Z,99.90
2023-05-22T06:16:36.752Z,99.90
2023-05-22T06:19:04.988Z,99.90
2023-05-22T06:21:32.363Z,99.90
2023-05-22T06:23:59.174Z,99.90
2023-05-22T06:26:26.256Z,99.90
2023-05-22T06:28:54.633Z,99.90
2023-05-22T06:31:22.696Z,99.90
2023-05-22T06:33:49.937Z,99.90
2023-05-22T06:36:17.618Z,99.90
2023-05-22T06:38:46.399Z,99.90
2023-05-22T06:41:13.357Z,99.90
2023-05-22T06:43:40.054Z,99.90
2023-05-22T06:46:07.318Z,99.90
2023-05-22T06:48:35.154Z,99.90
2023-05-22T06:51:02.065Z,99.90
2023-05-22T06:53:28.893Z,99.90
2023-05-22T06:55:56.079Z,99.90
2023-05-22T06:58:22.891Z,99.90
2023-05-22T07:00:49.761Z,99.90
2023-05-22T07:03:16.674Z,99.90
2023-05-22T07:05:43.584Z,99.90
2023-05-22T07:08:10.575Z,99.90
2023-05-22T07:10:37.755Z,99.90
2023-05-22T07:13:04.718Z,99.90
2023-05-22T07:15:31.581Z,99.90
2023-05-22T07:17:58.513Z,99.90
2023-05-22T07:20:26.358Z,99.90
2023-05-22T07:22:53.201Z,99.90
2023-05-22T07:25:20.064Z,99.90
2023-05-22T07:27:46.957Z,99.90
2023-05-22T07:30:13.860Z,99.90
2023-05-22T07:32:40.771Z,99.90
2023-05-22T07:35:08.210Z,99.90
2023-05-22T07:37:36.261Z,99.90
2023-05-22T07:40:05.381Z,99.90
2023-05-22T07:42:32.355Z,99.90
2023-05-22T07:44:59.182Z,99.90
2023-05-22T07:47:26.205Z,99.90
2023-05-22T07:49:52.982Z,99.90
2023-05-22T07:53:07.925Z,99.90
2023-05-22T07:55:35.043Z,99.90
2023-05-22T07:58:04.592Z,99.90
2023-05-22T08:00:31.408Z,99.90
2023-05-22T08:02:58.402Z,99.90
2023-05-22T08:05:25.347Z,99.90
2023-05-22T08:07:52.421Z,99.90
2023-05-22T08:10:19.426Z,99.90
2023-05-22T08:12:46.204Z,99.90
2023-05-22T08:15:13.486Z,99.90
2023-05-22T08:17:40.287Z,99.90
2023-05-22T08:20:09.494Z,99.90
2023-05-22T08:22:38.439Z,99.90
2023-05-22T08:25:05.566Z,99.90
2023-05-22T08:27:32.417Z,99.90
2023-05-22T08:29:59.419Z,99.90
2023-05-22T08:32:27.289Z,99.90
2023-05-22T08:34:55.313Z,99.90
2023-05-22T08:37:22.045Z,99.90
2023-05-22T08:39:48.966Z,99.90
2023-05-22T08:42:15.823Z,99.90
2023-05-22T08:44:42.689Z,99.90
2023-05-22T08:47:14.266Z,99.90
2023-05-22T08:49:41.497Z,99.90
2023-05-22T08:52:14.989Z,99.90
2023-05-22T08:54:44.860Z,99.90
2023-05-22T08:57:12.166Z,99.90
2023-05-22T08:59:39.871Z,99.90
2023-05-22T09:02:07.069Z,99.90
2023-05-22T09:04:34.920Z,99.90
2023-05-22T09:07:06.005Z,99.90
2023-05-22T09:09:37.139Z,99.90
2023-05-22T09:12:11.719Z,99.90
2023-05-22T09:14:40.440Z,99.90
2023-05-22T09:17:08.534Z,99.90
2023-05-22T09:19:35.479Z,99.90
2023-05-22T09:22:06.898Z,99.90
2023-05-22T09:24:42.498Z,99.90
2023-05-22T09:27:10.412Z,99.90
2023-05-22T09:29:51.270Z,99.90
2023-05-22T09:32:18.721Z,99.90
2023-05-22T09:34:47.077Z,99.90
2023-05-22T09:37:14.404Z,99.90
2023-05-22T09:39:45.091Z,99.90
2023-05-22T09:42:12.916Z,99.90
2023-05-22T09:44:40.042Z,99.90
2023-05-22T09:47:07.388Z,99.90
2023-05-22T09:49:43.923Z,99.90
2023-05-22T09:52:15.186Z,99.90
2023-05-22T09:54:55.472Z,99.90
2023-05-22T09:57:24.237Z,99.90
2023-05-22T09:59:58.713Z,99.90
2023-05-22T10:02:27.328Z,99.90
2023-05-22T10:04:55.059Z,99.90
2023-05-22T10:07:31.140Z,99.90
2023-05-22T10:10:02.324Z,99.90
2023-05-22T10:12:29.359Z,99.90
2023-05-22T10:14:56.232Z,99.90
2023-05-22T10:17:23.317Z,99.90
2023-05-22T10:19:50.289Z,99.90
2023-05-22T10:22:21.146Z,99.90
2023-05-22T10:24:48.591Z,99.90
2023-05-22T10:27:15.688Z,99.90
2023-05-22T10:30:08.883Z,99.90
2023-05-22T10:33:14.940Z,99.90
2023-05-22T10:35:57.349Z,99.90
2023-05-22T10:38:51.107Z,99.90
2023-05-22T10:41:18.716Z,99.90
2023-05-22T10:43:48.757Z,99.90
2023-05-22T10:46:15.860Z,99.90
2023-05-22T10:48:49.409Z,99.90
2023-05-22T10:51:22.842Z,99.90
2023-05-22T10:53:54.596Z,99.90
2023-05-22T10:56:25.158Z,99.90
2023-05-22T10:59:02.763Z,99.90
2023-05-22T11:01:29.802Z,99.30
2023-05-22T11:03:57.659Z,98.90
2023-05-22T11:06:37.005Z,98.50
2023-05-22T11:09:41.399Z,99.10
2023-05-22T11:12:28.545Z,99.30
2023-05-22T11:15:08.084Z,99.50
2023-05-22T11:17:46.396Z,99.70
2023-05-22T11:20:22.879Z,99.70
2023-05-22T11:23:00.932Z,99.10
2023-05-22T11:25:28.394Z,99.00
2023-05-22T11:27:56.523Z,98.80
2023-05-22T11:30:26.858Z,99.10
2023-05-22T11:32:53.792Z,98.90
2023-05-22T11:35:23.918Z,98.90
2023-05-22T11:37:51.751Z,98.40
2023-05-22T11:40:19.709Z,98.30
2023-05-22T11:42:46.816Z,98.30
2023-05-22T11:45:14.082Z,98.00
2023-05-22T11:47:40.955Z,98.20
2023-05-22T11:50:11.753Z,98.60
2023-05-22T11:52:41.189Z,98.90
2023-05-22T11:55:08.688Z,99.30
2023-05-22T11:57:35.879Z,99.00
2023-05-22T12:00:06.282Z,99.20
2023-05-22T12:02:33.323Z,99.50
2023-05-22T12:05:00.336Z,99.90
2023-05-22T12:07:30.315Z,99.70
2023-05-22T12:09:58.346Z,99.60
2023-05-22T12:12:25.346Z,99.80
2023-05-22T12:14:53.418Z,99.60
2023-05-22T12:17:20.449Z,99.50
2023-05-22T12:19:47.933Z,99.40
2023-05-22T12:22:14.911Z,99.20
2023-05-22T12:24:48.163Z,99.40
2023-05-22T12:27:15.118Z,99.50
2023-05-22T12:29:42.662Z,99.50
2023-05-22T12:32:13.501Z,99.30
2023-05-22T12:34:44.740Z,99.50
2023-05-22T12:37:38.041Z,99.60
2023-05-22T12:40:05.298Z,99.40
2023-05-22T12:42:32.081Z,99.60
2023-05-22T12:45:00.713Z,98.80
2023-05-22T12:47:27.597Z,99.20
2023-05-22T12:49:54.529Z,99.20
2023-05-22T12:52:21.295Z,99.30
2023-05-22T12:54:48.082Z,99.30
2023-05-22T12:57:16.826Z,99.00
2023-05-22T12:59:43.843Z,99.20
2023-05-22T13:02:10.759Z,99.40
2023-05-22T13:04:37.564Z,98.90
2023-05-22T13:07:04.554Z,99.40
2023-05-22T13:09:32.624Z,99.30
2023-05-22T13:12:00.138Z,99.80
2023-05-22T13:14:27.230Z,99.10
2023-05-22T13:16:54.348Z,99.10
2023-05-22T13:19:21.229Z,99.20
2023-05-22T13:21:48.064Z,99.00
2023-05-22T13:24:14.878Z,99.20
2023-05-22T13:26:41.881Z,99.70
2023-05-22T13:29:08.717Z,99.60
2023-05-22T13:31:38.001Z,99.90
2023-05-22T13:34:05.222Z,99.80
2023-05-22T13:36:32.323Z,99.90
2023-05-22T13:38:59.243Z,99.80
2023-05-22T13:41:26.135Z,99.90
2023-05-22T13:43:53.136Z,99.60
2023-05-22T13:46:21.373Z,99.30
2023-05-22T13:48:48.228Z,99.50
2023-05-22T13:51:15.139Z,99.20
2023-05-22T13:53:41.982Z,99.20
2023-05-22T13:56:08.793Z,99.10
2023-05-22T13:58:35.707Z,99.10
2023-05-22T14:01:02.562Z,99.20
2023-05-22T14:03:29.590Z,98.90
2023-05-22T14:05:56.575Z,99.20
2023-05-22T14:08:24.155Z,99.00
2023-05-22T14:10:50.932Z,98.40
2023-05-22T14:13:18.037Z,98.70
2023-05-22T14:15:47.075Z,99.40
2023-05-22T14:18:14.559Z,98.90
2023-05-22T14:20:41.539Z,98.60
2023-05-22T14:23:08.555Z,98.30
2023-05-22T14:25:35.545Z,97.50
2023-05-22T14:28:02.387Z,97.60
2023-05-22T14:30:29.165Z,96.90
2023-05-22T14:32:55.946Z,97.00
2023-05-22T14:35:22.798Z,97.10
2023-05-22T14:37:49.550Z,96.90
2023-05-22T14:40:16.360Z,96.50
2023-05-22T14:42:43.281Z,96.60
2023-05-22T14:45:10.381Z,96.90
2023-05-22T14:47:37.239Z,96.00
2023-05-22T14:50:18.154Z,95.80
2023-05-22T14:52:45.637Z,94.90
2023-05-22T14:55:12.392Z,93.60
2023-05-22T14:57:39.375Z,93.80
2023-05-22T15:00:08.719Z,93.30
2023-05-22T15:02:35.912Z,93.20
2023-05-22T15:05:02.777Z,92.50
2023-05-22T15:07:43.308Z,92.70
2023-05-22T15:10:12.278Z,92.70
2023-05-22T15:12:39.102Z,92.20
2023-05-22T15:15:06.387Z,92.10
2023-05-22T15:17:33.281Z,91.50
2023-05-22T15:20:00.117Z,91.20
2023-05-22T15:22:26.921Z,91.20
2023-05-22T15:25:07.734Z,91.10
2023-05-22T15:27:35.216Z,90.60
2023-05-22T15:30:02.683Z,90.70
2023-05-22T15:32:30.874Z,90.40
2023-05-22T15:34:57.719Z,90.40
2023-05-22T15:37:24.473Z,89.80
2023-05-22T15:39:51.211Z,90.20
2023-05-22T15:42:18.024Z,90.00
2023-05-22T15:44:44.853Z,89.30
2023-05-22T15:47:11.664Z,89.80
2023-05-22T15:49:38.351Z,89.50
2023-05-22T15:52:05.312Z,88.70
2023-05-22T15:54:32.097Z,88.50
2023-05-22T15:56:58.813Z,88.90
2023-05-22T15:59:25.566Z,89.10
2023-05-22T16:01:52.355Z,89.20
2023-05-22T16:04:19.212Z,89.30
2023-05-22T16:06:46.071Z,88.20
2023-05-22T16:09:12.853Z,87.70
2023-05-22T16:11:39.568Z,87.00
2023-05-22T16:14:06.514Z,88.50
2023-05-22T16:16:35.920Z,88.00
2023-05-22T16:19:03.075Z,87.90
2023-05-22T16:21:29.826Z,87.80
2023-05-22T16:23:58.238Z,87.20
2023-05-22T16:26:25.276Z,87.00
2023-05-22T16:28:52.065Z,87.60
2023-05-22T16:31:19.877Z,87.70
2023-05-22T16:33:46.762Z,88.30
2023-05-22T16:36:13.604Z,88.00
2023-05-22T16:38:40.346Z,87.50
2023-05-22T16:41:07.076Z,88.30
2023-05-22T16:43:33.825Z,88.00
2023-05-22T16:46:00.620Z,87.40
2023-05-22T16:48:27.451Z,88.00
2023-05-22T16:50:54.295Z,87.20
2023-05-22T16:53:22.665Z,87.00
2023-05-22T16:55:49.406Z,88.10
2023-05-22T16:58:16.154Z,88.20
2023-05-22T17:00:42.981Z,88.70
2023-05-22T17:03:11.708Z,89.50
2023-05-22T17:05:39.121Z,89.70
2023-05-22T17:08:06.562Z,88.90
2023-05-22T17:10:33.314Z,88.30
2023-05-22T17:13:00.070Z,88.40
2023-05-22T17:15:26.871Z,88.90
2023-05-22T17:17:53.784Z,90.10
2023-05-22T17:20:22.974Z,90.40
2023-05-22T17:22:50.054Z,90.10
2023-05-22T17:25:19.249Z,90.00
2023-05-22T17:27:46.525Z,89.30
2023-05-22T17:30:13.429Z,87.90
2023-05-22T17:32:40.232Z,87.90
2023-05-22T17:35:07.317Z,88.90
2023-05-22T17:37:34.318Z,88.80
2023-05-22T17:40:01.132Z,89.40
2023-05-22T17:42:28.152Z,90.60
2023-05-22T17:44:55.003Z,90.70
2023-05-22T17:47:22.035Z,90.30
2023-05-22T17:49:48.891Z,90.70
2023-05-22T17:52:15.740Z,90.70
2023-05-22T17:54:42.543Z,91.00
2023-05-22T17:57:09.414Z,90.20
2023-05-22T17:59:38.453Z,90.00
2023-05-22T18:02:06.857Z,86.30
2023-05-22T18:04:33.691Z,84.80
2023-05-22T18:07:00.519Z,85.30
2023-05-22T18:09:27.481Z,84.10
2023-05-22T18:11:54.451Z,83.50
2023-05-22T18:14:21.205Z,85.10
2023-05-22T18:16:51.020Z,84.10
2023-05-22T18:19:17.901Z,85.20
2023-05-22T18:21:44.699Z,85.30
2023-05-22T18:24:13.097Z,86.00
2023-05-22T18:26:39.802Z,87.00
2023-05-22T18:29:06.688Z,86.80
2023-05-22T18:31:33.549Z,86.30
2023-05-22T18:34:00.573Z,85.50
2023-05-22T18:36:27.462Z,86.20
2023-05-22T18:38:54.223Z,86.00
2023-05-22T18:41:21.987Z,84.90
2023-05-22T18:43:48.872Z,86.00
2023-05-22T18:46:15.744Z,85.50
2023-05-22T18:48:42.577Z,85.70
2023-05-22T18:51:09.431Z,85.20
2023-05-22T18:53:36.313Z,83.60
2023-05-22T18:56:03.253Z,83.90
2023-05-22T18:58:30.087Z,84.50
2023-05-22T19:00:56.986Z,85.10
2023-05-22T19:03:23.793Z,85.70
2023-05-22T19:05:50.714Z,85.90
2023-05-22T19:08:17.727Z,85.20
2023-05-22T19:10:44.608Z,85.90
2023-05-22T19:13:11.444Z,85.10
2023-05-22T19:15:38.508Z,86.00
2023-05-22T19:18:05.454Z,85.20
2023-05-22T19:20:32.644Z,85.60
2023-05-22T19:22:59.441Z,87.00
2023-05-22T19:25:26.217Z,87.60
2023-05-22T19:27:53.030Z,87.00
2023-05-22T19:30:21.857Z,86.90
2023-05-22T19:32:55.651Z,87.90
2023-05-22T19:35:22.780Z,88.20
2023-05-22T19:37:50.218Z,88.10
2023-05-22T19:40:17.129Z,88.40
2023-05-22T19:42:44.155Z,88.80
2023-05-22T19:45:11.220Z,89.00
2023-05-22T19:47:38.065Z,90.00
2023-05-22T19:50:05.439Z,89.90
2023-05-22T19:52:33.239Z,90.40
2023-05-22T19:55:00.208Z,90.40
2023-05-22T19:57:27.264Z,91.10
2023-05-22T19:59:55.845Z,90.80
2023-05-22T20:02:22.928Z,91.20
2023-05-22T20:04:49.836Z,91.10
2023-05-22T20:07:17.019Z,91.10
2023-05-22T20:09:43.930Z,91.40
2023-05-22T20:12:11.219Z,91.70
2023-05-22T20:14:39.439Z,91.70
2023-05-22T20:17:07.591Z,91.80
2023-05-22T20:19:35.784Z,91.80
2023-05-22T20:22:05.249Z,92.10
2023-05-22T20:24:33.532Z,92.20
2023-05-22T20:27:03.346Z,92.60
2023-05-22T20:29:31.233Z,92.40
2023-05-22T20:31:58.525Z,92.70
2023-05-22T20:34:26.844Z,92.80
2023-05-22T20:36:54.511Z,92.60
2023-05-22T20:39:22.411Z,93.00
2023-05-22T20:41:52.310Z,93.20
2023-05-22T20:44:21.961Z,93.20
2023-05-22T20:46:49.085Z,92.90
2023-05-22T20:49:21.233Z,93.30
2023-05-22T20:51:54.199Z,93.10
2023-05-22T20:54:21.538Z,93.10
2023-05-22T20:56:48.695Z,93.30
2023-05-22T20:59:15.956Z,93.10
2023-05-22T21:01:43.190Z,93.20
2023-05-22T21:04:10.329Z,93.00
2023-05-22T21:06:37.623Z,93.30
2023-05-22T21:09:04.457Z,93.50
2023-05-22T21:11:31.268Z,93.50
2023-05-22T21:13:58.069Z,93.60
2023-05-22T21:16:24.948Z,93.50
2023-05-22T21:18:51.758Z,93.70
2023-05-22T21:21:20.180Z,93.50
2023-05-22T21:23:48.027Z,93.80
2023-05-22T21:26:14.957Z,93.80
2023-05-22T21:28:42.810Z,94.00
2023-05-22T21:31:09.662Z,94.10
2023-05-22T21:33:36.437Z,94.40
2023-05-22T21:36:03.390Z,94.30
2023-05-22T21:38:30.595Z,94.60
2023-05-22T21:40:57.474Z,94.90
2023-05-22T21:43:24.513Z,94.90
2023-05-22T21:45:51.335Z,94.90
2023-05-22T21:48:18.048Z,95.00
2023-05-22T21:50:44.891Z,95.20
2023-05-22T21:53:12.508Z,95.20
2023-05-22T21:55:39.337Z,95.30
2023-05-22T21:58:06.032Z,95.40
2023-05-22T22:00:32.806Z,95.40
2023-05-22T22:02:59.633Z,95.50
2023-05-22T22:05:27.632Z,95.50
2023-05-22T22:07:54.391Z,95.80
2023-05-22T22:10:21.360Z,95.80
2023-05-22T22:12:48.407Z,95.80
2023-05-22T22:15:15.211Z,96.30
2023-05-22T22:17:42.163Z,96.10
2023-05-22T22:20:09.433Z,96.40
2023-05-22T22:22:36.266Z,96.60
2023-05-22T22:25:03.150Z,96.80
2023-05-22T22:27:29.899Z,97.00
2023-05-22T22:29:56.719Z,97.00
2023-05-22T22:32:23.606Z,97.10
2023-05-22T22:34:53.792Z,97.20
2023-05-22T22:37:21.640Z,97.30
2023-05-22T22:39:48.434Z,97.70
2023-05-22T22:42:15.279Z,97.30
2023-05-22T22:44:43.136Z,97.60
2023-05-22T22:47:10.334Z,97.70
2023-05-22T22:49:37.398Z,97.80
2023-05-22T22:52:04.692Z,98.00
2023-05-22T22:54:31.702Z,98.40
2023-05-22T22:56:58.677Z,98.50
2023-05-22T22:59:25.597Z,98.80
2023-05-22T23:01:52.432Z,98.90
2023-05-22T23:04:19.326Z,99.10
2023-05-22T23:06:46.172Z,99.40
2023-05-22T23:09:13.322Z,99.60
2023-05-22T23:11:40.088Z,99.80
2023-05-22T23:14:08.340Z,99.90
2023-05-22T23:16:36.324Z,99.90
2023-05-22T23:19:06.769Z,99.90
2023-05-22T23:21:33.767Z,99.90
2023-05-22T23:24:01.180Z,99.90
2023-05-22T23:26:28.292Z,99.90
2023-05-22T23:28:55.647Z,99.90
2023-05-22T23:31:26.264Z,99.90
2023-05-22T23:33:53.249Z,99.90
2023-05-22T23:36:20.104Z,99.90
2023-05-22T23:38:47.453Z,99.90
2023-05-22T23:41:15.044Z,99.90
2023-05-22T23:43:42.300Z,99.90
2023-05-22T23:46:09.418Z,99.90
2023-05-22T23:48:36.600Z,99.90
2023-05-22T23:51:05.206Z,99.90
2023-05-22T23:53:32.054Z,99.90
2023-05-22T23:55:59.208Z,99.90
2023-05-22T23:58:26.060Z,99.90
